createdAt,value
2023-01-06T00:00:15.603Z,16
2023-01-06T00:05:15.593Z,19
2023-01-06T00:10:15.600Z,16
2023-01-06T00:15:15.656Z,20
2023-01-06T00:20:15.675Z,18
2023-01-06T00:25:15.636Z,16
2023-01-06T00:30:15.690Z,19
2023-01-06T00:35:15.670Z,16
2023-01-06T00:40:15.710Z,18
2023-01-06T00:45:15.712Z,18
2023-01-06T00:50:15.603Z,19
2023-01-06T00:55:15.687Z,16
2023-01-06T01:00:15.720Z,23
2023-01-06T01:05:15.729Z,22
2023-01-06T01:10:15.795Z,17
2023-01-06T01:15:15.795Z,21
2023-01-06T01:20:15.749Z,24
2023-01-06T01:25:15.750Z,20
2023-01-06T01:30:15.845Z,19
2023-01-06T01:35:15.840Z,17
2023-01-06T01:40:15.806Z,19
2023-01-06T01:45:15.793Z,19
2023-01-06T01:50:15.935Z,18
2023-01-06T01:55:15.791Z,18
2023-01-06T02:00:15.902Z,20
2023-01-06T02:05:15.885Z,20
2023-01-06T02:10:15.895Z,19
2023-01-06T02:15:15.842Z,18
2023-01-06T02:20:15.966Z,19
2023-01-06T02:25:15.973Z,19
2023-01-06T02:30:15.944Z,19
2023-01-06T02:35:15.899Z,18
2023-01-06T02:40:15.858Z,20
2023-01-06T02:45:16.019Z,18
2023-01-06T02:50:15.972Z,18
2023-01-06T02:55:16.007Z,17
2023-01-06T03:00:16.015Z,20
2023-01-06T03:05:15.977Z,19
2023-01-06T03:10:15.934Z,21
2023-01-06T03:15:16.153Z,21
2023-01-06T03:20:15.987Z,18
2023-01-06T03:25:15.996Z,19
2023-01-06T03:30:16.026Z,20
2023-01-06T03:35:16.178Z,19
2023-01-06T03:40:16.122Z,19
2023-01-06T03:45:16.058Z,22
2023-01-06T03:50:16.065Z,23
2023-01-06T03:55:16.017Z,20
2023-01-06T04:00:16.045Z,20
2023-01-06T04:05:16.105Z,19
2023-01-06T04:10:16.142Z,20
2023-01-06T04:15:16.089Z,17
2023-01-06T04:20:16.368Z,16
2023-01-06T04:25:16.272Z,19
2023-01-06T04:30:16.238Z,17
2023-01-06T04:35:16.266Z,16
2023-01-06T04:40:16.119Z,15
2023-01-06T04:45:16.301Z,18
2023-01-06T04:50:16.311Z,18
2023-01-06T04:55:16.208Z,18
2023-01-06T05:00:17.647Z,16
2023-01-06T05:05:17.397Z,14
2023-01-06T05:10:17.265Z,12
2023-01-06T05:15:17.294Z,14
2023-01-06T05:20:17.267Z,17
2023-01-06T05:25:17.313Z,17
2023-01-06T05:30:17.299Z,14
2023-01-06T05:35:17.348Z,16
2023-01-06T05:40:17.268Z,19
2023-01-06T05:45:17.375Z,19
2023-01-06T05:50:17.455Z,18
2023-01-06T05:55:17.210Z,15
2023-01-06T06:00:17.340Z,14
2023-01-06T06:05:17.457Z,18
2023-01-06T06:10:17.327Z,17
2023-01-06T06:15:17.407Z,13
2023-01-06T06:20:17.399Z,13
2023-01-06T06:25:15.478Z,14
2023-01-06T06:30:15.395Z,14
2023-01-06T06:35:15.598Z,17
2023-01-06T06:40:15.463Z,17
2023-01-06T06:45:15.416Z,16
2023-01-06T06:50:15.428Z,17
2023-01-06T06:55:15.437Z,17
2023-01-06T07:00:15.558Z,11
2023-01-06T07:05:15.544Z,17
2023-01-06T07:10:15.530Z,14
2023-01-06T07:15:15.477Z,15
2023-01-06T07:20:15.594Z,16
2023-01-06T07:25:15.529Z,17
2023-01-06T07:30:15.567Z,18
2023-01-06T07:35:15.681Z,15
2023-01-06T07:40:15.556Z,22
2023-01-06T07:45:15.568Z,22
2023-01-06T07:50:15.560Z,17
2023-01-06T07:55:15.501Z,17
2023-01-06T08:00:16.698Z,16
2023-01-06T08:05:15.868Z,19
2023-01-06T08:10:15.652Z,14
2023-01-06T08:15:15.656Z,16
2023-01-06T08:20:15.653Z,16
2023-01-06T08:25:15.628Z,14
2023-01-06T08:30:15.616Z,19
2023-01-06T08:35:15.710Z,18
2023-01-06T08:40:15.798Z,18
2023-01-06T08:45:15.736Z,17
2023-01-06T08:50:15.796Z,12
2023-01-06T08:55:15.710Z,16
2023-01-06T09:00:15.720Z,16
2023-01-06T09:05:15.971Z,17
2023-01-06T09:10:15.837Z,16
2023-01-06T09:15:16.030Z,15
2023-01-06T09:20:15.840Z,16
2023-01-06T09:25:15.767Z,14
2023-01-06T09:30:15.786Z,15
2023-01-06T09:35:15.730Z,14
2023-01-06T09:40:15.792Z,14
2023-01-06T09:45:15.835Z,13
2023-01-06T09:50:16.085Z,13
2023-01-06T09:55:16.501Z,13
2023-01-06T10:00:16.827Z,14
2023-01-06T10:05:15.971Z,15
2023-01-06T10:10:16.044Z,11
2023-01-06T10:15:15.918Z,13
2023-01-06T10:20:15.953Z,12
2023-01-06T10:25:15.902Z,15
2023-01-06T10:30:15.958Z,14
2023-01-06T10:35:15.969Z,19
2023-01-06T10:40:16.097Z,13
2023-01-06T10:45:15.950Z,17
2023-01-06T10:50:15.953Z,16
2023-01-06T10:55:16.138Z,16
2023-01-06T11:00:16.059Z,15
2023-01-06T11:05:16.262Z,18
2023-01-06T11:10:16.087Z,16
2023-01-06T11:15:15.989Z,15
2023-01-06T11:20:16.138Z,14
2023-01-06T11:25:16.120Z,16
2023-01-06T11:30:16.083Z,12
2023-01-06T11:35:16.048Z,17
2023-01-06T11:40:16.285Z,15
2023-01-06T11:45:16.306Z,13
2023-01-06T11:50:16.080Z,13
2023-01-06T11:55:16.081Z,10
2023-01-06T12:00:16.098Z,13
2023-01-06T12:05:16.157Z,12
2023-01-06T12:10:16.184Z,14
2023-01-06T12:15:16.178Z,15
2023-01-06T12:20:16.226Z,12
2023-01-06T12:25:16.164Z,14
2023-01-06T12:30:16.247Z,14
2023-01-06T12:35:16.233Z,15
2023-01-06T12:40:16.402Z,16
2023-01-06T12:45:16.261Z,11
2023-01-06T12:50:16.243Z,15
2023-01-06T12:55:16.281Z,14
2023-01-06T13:00:16.227Z,14
2023-01-06T13:05:16.386Z,14
2023-01-06T13:10:16.966Z,11
2023-01-06T13:15:16.292Z,11
2023-01-06T13:20:16.282Z,10
2023-01-06T13:25:16.352Z,11
2023-01-06T13:30:16.360Z,10
2023-01-06T13:35:16.332Z,9
2023-01-06T13:40:16.409Z,9
2023-01-06T13:45:16.500Z,8
2023-01-06T13:50:16.330Z,10
2023-01-06T13:55:16.514Z,10
2023-01-06T14:00:16.413Z,6
2023-01-06T14:05:16.420Z,9
2023-01-06T14:10:16.417Z,9
2023-01-06T14:15:16.448Z,9
2023-01-06T14:20:16.455Z,12
2023-01-06T14:25:16.783Z,11
2023-01-06T14:30:16.677Z,13
2023-01-06T14:35:16.511Z,11
2023-01-06T14:40:16.478Z,9
2023-01-06T14:45:17.864Z,10
2023-01-06T14:50:16.443Z,10
2023-01-06T14:55:16.631Z,11
2023-01-06T15:00:16.571Z,11
2023-01-06T15:05:16.519Z,12
2023-01-06T15:10:16.557Z,11
2023-01-06T15:15:17.024Z,11
2023-01-06T15:20:16.588Z,12
2023-01-06T15:25:16.551Z,11
2023-01-06T15:30:16.599Z,9
2023-01-06T15:35:16.755Z,13
2023-01-06T15:40:16.782Z,10
2023-01-06T15:45:16.865Z,11
2023-01-06T15:50:16.648Z,14
2023-01-06T15:55:16.578Z,12
2023-01-06T16:00:16.632Z,10
2023-01-06T16:05:16.816Z,12
2023-01-06T16:10:16.683Z,11
2023-01-06T16:15:16.686Z,11
2023-01-06T16:20:16.658Z,12
2023-01-06T16:25:16.700Z,9
2023-01-06T16:30:16.945Z,9
2023-01-06T16:35:16.756Z,9
2023-01-06T16:40:16.784Z,9
2023-01-06T16:45:16.774Z,10
2023-01-06T16:50:16.712Z,10
2023-01-06T16:55:16.808Z,9
2023-01-06T17:00:16.829Z,8
2023-01-06T17:05:16.971Z,10
2023-01-06T17:10:16.842Z,10
2023-01-06T17:15:16.835Z,11
2023-01-06T17:20:16.832Z,11
2023-01-06T17:25:16.884Z,11
2023-01-06T17:30:16.870Z,10
2023-01-06T17:35:16.891Z,12
2023-01-06T17:40:17.009Z,9
2023-01-06T17:45:16.912Z,12
2023-01-06T17:50:16.961Z,11
2023-01-06T17:55:17.840Z,10
2023-01-06T18:00:16.902Z,9
2023-01-06T18:05:16.950Z,9
2023-01-06T18:10:17.074Z,11
2023-01-06T18:15:18.337Z,11
2023-01-06T18:20:15.993Z,10
2023-01-06T18:25:16.006Z,9
2023-01-06T18:30:16.011Z,8
2023-01-06T18:35:16.038Z,11
2023-01-06T18:40:16.256Z,11
2023-01-06T18:45:16.066Z,12
2023-01-06T18:50:16.076Z,9
2023-01-06T18:55:16.504Z,8
2023-01-06T19:00:16.058Z,8
2023-01-06T19:05:16.037Z,9
2023-01-06T19:10:16.061Z,6
2023-01-06T19:15:16.106Z,8
2023-01-06T19:20:16.140Z,9
2023-01-06T19:25:16.069Z,10
2023-01-06T19:30:16.165Z,11
2023-01-06T19:35:16.117Z,12
2023-01-06T19:40:16.173Z,11
2023-01-06T19:45:16.140Z,12
2023-01-06T19:50:16.186Z,11
2023-01-06T19:55:16.232Z,11
2023-01-06T20:00:16.224Z,11
2023-01-06T20:05:16.273Z,11
2023-01-06T20:10:16.145Z,14
2023-01-06T20:15:16.377Z,12
2023-01-06T20:20:16.317Z,11
2023-01-06T20:25:16.345Z,12
2023-01-06T20:30:16.381Z,9
2023-01-06T20:35:16.278Z,9
2023-01-06T20:40:16.366Z,12
2023-01-06T20:45:16.314Z,12
2023-01-06T20:50:17.209Z,14
2023-01-06T20:55:16.479Z,12
2023-01-06T21:00:16.333Z,14
2023-01-06T21:05:16.315Z,14
2023-01-06T21:10:16.263Z,10
2023-01-06T21:15:16.377Z,10
2023-01-06T21:20:16.608Z,11
2023-01-06T21:25:16.284Z,9
2023-01-06T21:30:16.377Z,11
2023-01-06T21:35:16.426Z,9
2023-01-06T21:40:16.450Z,10
2023-01-06T21:45:16.473Z,10
2023-01-06T21:50:16.514Z,11
2023-01-06T21:55:16.395Z,12
2023-01-06T22:00:16.421Z,13
2023-01-06T22:05:16.779Z,11
2023-01-06T22:10:16.516Z,12
2023-01-06T22:15:16.828Z,10
2023-01-06T22:20:16.559Z,10
2023-01-06T22:25:16.560Z,9
2023-01-06T22:30:16.524Z,11
2023-01-06T22:35:16.508Z,11
2023-01-06T22:40:16.591Z,9
2023-01-06T22:45:16.561Z,11
2023-01-06T22:50:16.599Z,10
2023-01-06T22:55:16.592Z,10
2023-01-06T23:00:16.608Z,9
2023-01-06T23:05:16.744Z,9
2023-01-06T23:10:16.678Z,13
2023-01-06T23:15:16.675Z,12
2023-01-06T23:20:16.612Z,9
2023-01-06T23:25:16.642Z,9
2023-01-06T23:30:16.727Z,9
2023-01-06T23:35:16.655Z,8
2023-01-06T23:40:16.699Z,10
2023-01-06T23:45:16.671Z,10
2023-01-06T23:50:16.723Z,11
2023-01-06T23:55:16.617Z,8
